sensor_id;sensor_type;location;lat;lon;timestamp;temperature;humidity
1996;DHT22;38556;47.068;15.408;2023-06-26T00:01:55;23.00;93.30
1996;DHT22;38556;47.068;15.408;2023-06-26T00:04:22;23.00;93.00
1996;DHT22;38556;47.068;15.408;2023-06-26T00:06:49;22.70;92.90
1996;DHT22;38556;47.068;15.408;2023-06-26T00:09:17;22.70;93.30
1996;DHT22;38556;47.068;15.408;2023-06-26T00:11:44;22.70;93.30
1996;DHT22;38556;47.068;15.408;2023-06-26T00:14:13;22.60;93.50
1996;DHT22;38556;47.068;15.408;2023-06-26T00:16:41;22.60;93.00
1996;DHT22;38556;47.068;15.408;2023-06-26T00:19:08;22.50;93.00
1996;DHT22;38556;47.068;15.408;2023-06-26T00:21:35;22.50;93.40
1996;DHT22;38556;47.068;15.408;2023-06-26T00:24:03;22.20;93.40
1996;DHT22;38556;47.068;15.408;2023-06-26T00:26:30;22.20;93.50
1996;DHT22;38556;47.068;15.408;2023-06-26T00:28:57;22.20;93.80
1996;DHT22;38556;47.068;15.408;2023-06-26T00:31:26;22.40;93.40
1996;DHT22;38556;47.068;15.408;2023-06-26T00:33:53;22.40;93.80
1996;DHT22;38556;47.068;15.408;2023-06-26T00:36:21;22.40;93.40
1996;DHT22;38556;47.068;15.408;2023-06-26T00:38:48;22.50;93.40
1996;DHT22;38556;47.068;15.408;2023-06-26T00:41:16;22.50;93.40
1996;DHT22;38556;47.068;15.408;2023-06-26T00:43:43;22.50;93.60
1996;DHT22;38556;47.068;15.408;2023-06-26T00:46:12;22.50;93.50
1996;DHT22;38556;47.068;15.408;2023-06-26T00:48:43;22.60;93.90
1996;DHT22;38556;47.068;15.408;2023-06-26T00:51:11;22.60;93.80
1996;DHT22;38556;47.068;15.408;2023-06-26T00:53:39;22.60;93.80
1996;DHT22;38556;47.068;15.408;2023-06-26T00:56:07;22.60;93.50
1996;DHT22;38556;47.068;15.408;2023-06-26T00:58:34;22.60;93.50
1996;DHT22;38556;47.068;15.408;2023-06-26T01:01:02;22.60;93.80
1996;DHT22;38556;47.068;15.408;2023-06-26T01:03:31;22.60;93.50
1996;DHT22;38556;47.068;15.408;2023-06-26T01:06:00;22.60;93.60
1996;DHT22;38556;47.068;15.408;2023-06-26T01:08:29;22.60;93.50
1996;DHT22;38556;47.068;15.408;2023-06-26T01:10:56;22.50;93.80
1996;DHT22;38556;47.068;15.408;2023-06-26T01:13:24;22.50;93.80
1996;DHT22;38556;47.068;15.408;2023-06-26T01:15:51;22.50;93.90
1996;DHT22;38556;47.068;15.408;2023-06-26T01:18:19;22.50;93.90
1996;DHT22;38556;47.068;15.408;2023-06-26T01:20:48;22.50;93.90
1996;DHT22;38556;47.068;15.408;2023-06-26T01:23:22;22.50;93.40
1996;DHT22;38556;47.068;15.408;2023-06-26T01:28:32;22.40;93.90
1996;DHT22;38556;47.068;15.408;2023-06-26T01:31:02;22.40;93.70
1996;DHT22;38556;47.068;15.408;2023-06-26T01:33:30;22.30;93.50
1996;DHT22;38556;47.068;15.408;2023-06-26T01:35:57;22.30;93.60
1996;DHT22;38556;47.068;15.408;2023-06-26T01:38:24;22.30;93.60
1996;DHT22;38556;47.068;15.408;2023-06-26T01:40:53;22.30;94.00
1996;DHT22;38556;47.068;15.408;2023-06-26T01:43:24;22.20;93.60
1996;DHT22;38556;47.068;15.408;2023-06-26T01:45:58;22.10;93.30
1996;DHT22;38556;47.068;15.408;2023-06-26T01:48:38;22.10;93.70
1996;DHT22;38556;47.068;15.408;2023-06-26T01:51:08;22.10;94.00
1996;DHT22;38556;47.068;15.408;2023-06-26T01:53:39;22.10;94.10
1996;DHT22;38556;47.068;15.408;2023-06-26T01:56:12;22.10;93.90
1996;DHT22;38556;47.068;15.408;2023-06-26T01:58:42;22.10;94.10
1996;DHT22;38556;47.068;15.408;2023-06-26T02:01:12;22.10;93.80
1996;DHT22;38556;47.068;15.408;2023-06-26T02:03:39;22.10;94.10
1996;DHT22;38556;47.068;15.408;2023-06-26T02:06:07;22.10;94.00
1996;DHT22;38556;47.068;15.408;2023-06-26T02:08:34;22.10;94.30
1996;DHT22;38556;47.068;15.408;2023-06-26T02:11:01;22.10;94.20
1996;DHT22;38556;47.068;15.408;2023-06-26T02:13:28;22.10;94.30
1996;DHT22;38556;47.068;15.408;2023-06-26T02:15:55;22.00;94.20
1996;DHT22;38556;47.068;15.408;2023-06-26T02:18:25;22.00;94.40
1996;DHT22;38556;47.068;15.408;2023-06-26T02:20:52;21.90;94.40
1996;DHT22;38556;47.068;15.408;2023-06-26T02:23:19;21.90;93.90
1996;DHT22;38556;47.068;15.408;2023-06-26T02:25:46;21.80;93.80
1996;DHT22;38556;47.068;15.408;2023-06-26T02:28:14;21.80;93.80
1996;DHT22;38556;47.068;15.408;2023-06-26T02:30:41;21.70;94.20
1996;DHT22;38556;47.068;15.408;2023-06-26T02:33:09;21.70;94.40
1996;DHT22;38556;47.068;15.408;2023-06-26T02:38:05;21.80;94.20
1996;DHT22;38556;47.068;15.408;2023-06-26T02:40:32;21.70;94.20
1996;DHT22;38556;47.068;15.408;2023-06-26T02:42:59;21.70;94.30
1996;DHT22;38556;47.068;15.408;2023-06-26T02:45:26;21.70;94.60
1996;DHT22;38556;47.068;15.408;2023-06-26T02:47:54;21.80;94.60
1996;DHT22;38556;47.068;15.408;2023-06-26T02:50:21;21.80;94.90
1996;DHT22;38556;47.068;15.408;2023-06-26T02:52:50;21.80;94.80
1996;DHT22;38556;47.068;15.408;2023-06-26T02:55:18;21.80;94.80
1996;DHT22;38556;47.068;15.408;2023-06-26T02:57:46;21.90;94.60
1996;DHT22;38556;47.068;15.408;2023-06-26T03:00:14;21.90;94.80
1996;DHT22;38556;47.068;15.408;2023-06-26T03:02:41;21.80;94.30
1996;DHT22;38556;47.068;15.408;2023-06-26T03:05:08;21.80;94.70
1996;DHT22;38556;47.068;15.408;2023-06-26T03:07:36;21.80;94.50
1996;DHT22;38556;47.068;15.408;2023-06-26T03:10:05;21.80;94.60
1996;DHT22;38556;47.068;15.408;2023-06-26T03:12:32;21.80;94.50
1996;DHT22;38556;47.068;15.408;2023-06-26T03:15:00;21.80;94.90
1996;DHT22;38556;47.068;15.408;2023-06-26T03:17:27;21.80;94.30
1996;DHT22;38556;47.068;15.408;2023-06-26T03:19:55;21.80;94.60
1996;DHT22;38556;47.068;15.408;2023-06-26T03:22:22;21.80;94.70
1996;DHT22;38556;47.068;15.408;2023-06-26T03:24:49;21.70;94.50
1996;DHT22;38556;47.068;15.408;2023-06-26T03:27:18;21.70;94.50
1996;DHT22;38556;47.068;15.408;2023-06-26T03:29:45;21.60;94.70
1996;DHT22;38556;47.068;15.408;2023-06-26T03:32:12;21.60;94.70
1996;DHT22;38556;47.068;15.408;2023-06-26T03:34:39;21.60;94.60
1996;DHT22;38556;47.068;15.408;2023-06-26T03:37:06;21.70;94.70
1996;DHT22;38556;47.068;15.408;2023-06-26T03:39:34;21.60;94.50
1996;DHT22;38556;47.068;15.408;2023-06-26T03:42:01;21.60;94.90
1996;DHT22;38556;47.068;15.408;2023-06-26T03:44:30;21.60;94.50
1996;DHT22;38556;47.068;15.408;2023-06-26T03:46:57;21.70;94.60
1996;DHT22;38556;47.068;15.408;2023-06-26T03:49:25;21.70;94.50
1996;DHT22;38556;47.068;15.408;2023-06-26T03:51:52;21.70;94.50
1996;DHT22;38556;47.068;15.408;2023-06-26T03:54:19;21.80;94.80
1996;DHT22;38556;47.068;15.408;2023-06-26T03:56:46;21.80;94.60
1996;DHT22;38556;47.068;15.408;2023-06-26T03:59:14;21.90;94.60
1996;DHT22;38556;47.068;15.408;2023-06-26T04:01:43;21.90;94.60
1996;DHT22;38556;47.068;15.408;2023-06-26T04:04:10;21.80;94.80
1996;DHT22;38556;47.068;15.408;2023-06-26T04:06:38;21.90;94.60
1996;DHT22;38556;47.068;15.408;2023-06-26T04:09:05;21.90;94.60
1996;DHT22;38556;47.068;15.408;2023-06-26T04:11:32;21.90;94.70
1996;DHT22;38556;47.068;15.408;2023-06-26T04:14:00;21.90;95.00
1996;DHT22;38556;47.068;15.408;2023-06-26T04:16:27;22.10;94.90
1996;DHT22;38556;47.068;15.408;2023-06-26T04:18:56;22.40;94.60
1996;DHT22;38556;47.068;15.408;2023-06-26T04:21:23;22.40;94.90
1996;DHT22;38556;47.068;15.408;2023-06-26T04:23:51;22.50;94.60
1996;DHT22;38556;47.068;15.408;2023-06-26T04:26:18;22.50;94.10
1996;DHT22;38556;47.068;15.408;2023-06-26T04:28:45;22.60;94.50
1996;DHT22;38556;47.068;15.408;2023-06-26T04:31:13;22.60;94.40
1996;DHT22;38556;47.068;15.408;2023-06-26T04:33:40;22.60;94.10
1996;DHT22;38556;47.068;15.408;2023-06-26T04:36:09;22.60;94.00
1996;DHT22;38556;47.068;15.408;2023-06-26T04:38:36;22.60;94.20
1996;DHT22;38556;47.068;15.408;2023-06-26T04:41:04;22.60;94.20
1996;DHT22;38556;47.068;15.408;2023-06-26T04:43:31;22.60;94.30
1996;DHT22;38556;47.068;15.408;2023-06-26T04:45:58;22.70;94.00
1996;DHT22;38556;47.068;15.408;2023-06-26T04:48:26;22.70;94.30
1996;DHT22;38556;47.068;15.408;2023-06-26T04:50:54;22.80;94.30
1996;DHT22;38556;47.068;15.408;2023-06-26T04:53:24;22.90;94.30
1996;DHT22;38556;47.068;15.408;2023-06-26T04:55:51;23.00;94.00
1996;DHT22;38556;47.068;15.408;2023-06-26T04:58:20;23.00;94.30
1996;DHT22;38556;47.068;15.408;2023-06-26T05:00:47;23.00;94.20
1996;DHT22;38556;47.068;15.408;2023-06-26T05:03:16;23.10;94.20
1996;DHT22;38556;47.068;15.408;2023-06-26T05:05:44;23.20;93.80
1996;DHT22;38556;47.068;15.408;2023-06-26T05:08:15;23.20;94.10
1996;DHT22;38556;47.068;15.408;2023-06-26T05:10:44;23.20;94.00
1996;DHT22;38556;47.068;15.408;2023-06-26T05:13:12;23.30;93.80
1996;DHT22;38556;47.068;15.408;2023-06-26T05:15:41;23.30;93.60
1996;DHT22;38556;47.068;15.408;2023-06-26T05:18:09;23.30;93.50
1996;DHT22;38556;47.068;15.408;2023-06-26T05:20:36;23.30;93.50
1996;DHT22;38556;47.068;15.408;2023-06-26T05:23:05;27.70;95.50
1996;DHT22;38556;47.068;15.408;2023-06-26T05:25:32;23.40;93.50
1996;DHT22;38556;47.068;15.408;2023-06-26T05:28:02;23.50;93.30
1996;DHT22;38556;47.068;15.408;2023-06-26T05:30:31;23.60;93.60
1996;DHT22;38556;47.068;15.408;2023-06-26T05:33:01;23.70;92.90
1996;DHT22;38556;47.068;15.408;2023-06-26T05:35:29;23.70;93.10
1996;DHT22;38556;47.068;15.408;2023-06-26T05:37:58;23.60;92.80
1996;DHT22;38556;47.068;15.408;2023-06-26T05:40:26;23.70;93.50
1996;DHT22;38556;47.068;15.408;2023-06-26T05:42:54;23.60;93.00
1996;DHT22;38556;47.068;15.408;2023-06-26T05:45:22;23.60;93.10
1996;DHT22;38556;47.068;15.408;2023-06-26T05:47:50;23.60;92.80
1996;DHT22;38556;47.068;15.408;2023-06-26T05:50:18;23.50;93.00
1996;DHT22;38556;47.068;15.408;2023-06-26T05:52:47;23.50;93.50
1996;DHT22;38556;47.068;15.408;2023-06-26T05:55:14;23.40;92.70
1996;DHT22;38556;47.068;15.408;2023-06-26T05:57:42;22.90;92.30
1996;DHT22;38556;47.068;15.408;2023-06-26T06:00:11;22.70;92.50
1996;DHT22;38556;47.068;15.408;2023-06-26T06:02:41;22.70;92.50
1996;DHT22;38556;47.068;15.408;2023-06-26T06:05:09;22.80;92.80
1996;DHT22;38556;47.068;15.408;2023-06-26T06:07:36;23.00;92.40
1996;DHT22;38556;47.068;15.408;2023-06-26T06:10:04;22.90;92.50
1996;DHT22;38556;47.068;15.408;2023-06-26T06:12:32;22.90;92.40
1996;DHT22;38556;47.068;15.408;2023-06-26T06:14:59;23.10;92.40
1996;DHT22;38556;47.068;15.408;2023-06-26T06:17:26;23.10;92.30
1996;DHT22;38556;47.068;15.408;2023-06-26T06:19:55;23.20;92.30
1996;DHT22;38556;47.068;15.408;2023-06-26T06:22:22;23.20;92.20
1996;DHT22;38556;47.068;15.408;2023-06-26T06:24:50;22.90;92.60
1996;DHT22;38556;47.068;15.408;2023-06-26T06:27:17;22.90;92.80
1996;DHT22;38556;47.068;15.408;2023-06-26T06:29:45;23.20;92.60
1996;DHT22;38556;47.068;15.408;2023-06-26T06:32:13;23.20;92.80
1996;DHT22;38556;47.068;15.408;2023-06-26T06:34:40;23.30;92.40
1996;DHT22;38556;47.068;15.408;2023-06-26T06:37:09;23.30;92.40
1996;DHT22;38556;47.068;15.408;2023-06-26T06:39:36;23.30;92.70
1996;DHT22;38556;47.068;15.408;2023-06-26T06:42:04;23.20;92.50
1996;DHT22;38556;47.068;15.408;2023-06-26T06:44:32;23.40;92.60
1996;DHT22;38556;47.068;15.408;2023-06-26T06:46:59;23.50;92.30
1996;DHT22;38556;47.068;15.408;2023-06-26T06:49:26;23.40;92.30
1996;DHT22;38556;47.068;15.408;2023-06-26T06:51:54;23.40;92.60
1996;DHT22;38556;47.068;15.408;2023-06-26T06:54:26;23.50;92.20
1996;DHT22;38556;47.068;15.408;2023-06-26T06:56:54;23.40;92.20
1996;DHT22;38556;47.068;15.408;2023-06-26T06:59:20;23.40;91.50
1996;DHT22;38556;47.068;15.408;2023-06-26T07:01:48;23.70;91.70
1996;DHT22;38556;47.068;15.408;2023-06-26T07:04:15;23.80;91.80
1996;DHT22;38556;47.068;15.408;2023-06-26T07:06:43;24.10;91.40
1996;DHT22;38556;47.068;15.408;2023-06-26T07:09:10;24.20;91.20
1996;DHT22;38556;47.068;15.408;2023-06-26T07:14:06;24.60;91.20
1996;DHT22;38556;47.068;15.408;2023-06-26T07:16:34;24.60;91.10
1996;DHT22;38556;47.068;15.408;2023-06-26T07:19:01;24.60;90.20
1996;DHT22;38556;47.068;15.408;2023-06-26T07:21:28;24.70;90.30
1996;DHT22;38556;47.068;15.408;2023-06-26T07:23:55;24.80;90.60
1996;DHT22;38556;47.068;15.408;2023-06-26T07:26:23;25.00;89.80
1996;DHT22;38556;47.068;15.408;2023-06-26T07:28:52;25.10;90.10
1996;DHT22;38556;47.068;15.408;2023-06-26T07:31:21;25.10;88.90
1996;DHT22;38556;47.068;15.408;2023-06-26T07:33:48;25.10;88.80
1996;DHT22;38556;47.068;15.408;2023-06-26T07:36:15;25.20;87.80
1996;DHT22;38556;47.068;15.408;2023-06-26T07:38:42;25.20;87.90
1996;DHT22;38556;47.068;15.408;2023-06-26T07:41:10;25.30;88.60
1996;DHT22;38556;47.068;15.408;2023-06-26T07:43:37;25.40;89.50
1996;DHT22;38556;47.068;15.408;2023-06-26T07:46:06;25.10;88.20
1996;DHT22;38556;47.068;15.408;2023-06-26T07:48:33;25.10;89.00
1996;DHT22;38556;47.068;15.408;2023-06-26T07:51:00;25.20;88.70
1996;DHT22;38556;47.068;15.408;2023-06-26T07:53:27;25.10;88.50
1996;DHT22;38556;47.068;15.408;2023-06-26T07:55:55;25.30;88.10
1996;DHT22;38556;47.068;15.408;2023-06-26T07:58:22;25.50;88.00
1996;DHT22;38556;47.068;15.408;2023-06-26T08:00:50;25.50;86.90
1996;DHT22;38556;47.068;15.408;2023-06-26T08:03:18;25.50;87.90
1996;DHT22;38556;47.068;15.408;2023-06-26T08:05:46;25.50;86.80
1996;DHT22;38556;47.068;15.408;2023-06-26T08:08:13;25.50;87.40
1996;DHT22;38556;47.068;15.408;2023-06-26T08:10:40;25.70;87.60
1996;DHT22;38556;47.068;15.408;2023-06-26T08:13:08;25.80;86.40
1996;DHT22;38556;47.068;15.408;2023-06-26T08:15:35;25.90;86.70
1996;DHT22;38556;47.068;15.408;2023-06-26T08:18:03;25.90;85.30
1996;DHT22;38556;47.068;15.408;2023-06-26T08:20:31;26.10;86.10
1996;DHT22;38556;47.068;15.408;2023-06-26T08:23:02;25.90;83.90
1996;DHT22;38556;47.068;15.408;2023-06-26T08:25:29;25.80;83.70
1996;DHT22;38556;47.068;15.408;2023-06-26T08:27:56;25.60;83.30
1996;DHT22;38556;47.068;15.408;2023-06-26T08:30:23;25.60;83.60
1996;DHT22;38556;47.068;15.408;2023-06-26T08:32:54;25.70;84.20
1996;DHT22;38556;47.068;15.408;2023-06-26T08:35:21;25.50;84.50
1996;DHT22;38556;47.068;15.408;2023-06-26T08:37:50;25.60;83.30
1996;DHT22;38556;47.068;15.408;2023-06-26T08:40:20;25.60;82.60
1996;DHT22;38556;47.068;15.408;2023-06-26T08:42:48;25.60;83.20
1996;DHT22;38556;47.068;15.408;2023-06-26T08:45:18;25.70;84.70
1996;DHT22;38556;47.068;15.408;2023-06-26T08:47:48;25.70;83.70
1996;DHT22;38556;47.068;15.408;2023-06-26T08:50:20;25.80;84.20
1996;DHT22;38556;47.068;15.408;2023-06-26T08:52:54;26.00;85.30
1996;DHT22;38556;47.068;15.408;2023-06-26T08:55:23;26.40;84.70
1996;DHT22;38556;47.068;15.408;2023-06-26T08:57:53;26.40;85.00
1996;DHT22;38556;47.068;15.408;2023-06-26T09:00:20;26.60;83.30
1996;DHT22;38556;47.068;15.408;2023-06-26T09:02:48;26.30;82.00
1996;DHT22;38556;47.068;15.408;2023-06-26T09:05:15;26.20;80.90
1996;DHT22;38556;47.068;15.408;2023-06-26T09:07:43;26.20;80.90
1996;DHT22;38556;47.068;15.408;2023-06-26T09:10:12;26.50;81.30
1996;DHT22;38556;47.068;15.408;2023-06-26T09:12:39;26.50;82.00
1996;DHT22;38556;47.068;15.408;2023-06-26T09:15:07;26.70;80.90
1996;DHT22;38556;47.068;15.408;2023-06-26T09:17:39;26.60;77.50
1996;DHT22;38556;47.068;15.408;2023-06-26T09:20:07;26.50;82.30
1996;DHT22;38556;47.068;15.408;2023-06-26T09:22:37;26.70;83.20
1996;DHT22;38556;47.068;15.408;2023-06-26T09:25:06;26.70;81.00
1996;DHT22;38556;47.068;15.408;2023-06-26T09:27:36;26.90;80.30
1996;DHT22;38556;47.068;15.408;2023-06-26T09:30:03;26.90;81.80
1996;DHT22;38556;47.068;15.408;2023-06-26T09:32:34;26.90;80.90
1996;DHT22;38556;47.068;15.408;2023-06-26T09:35:03;27.00;81.00
1996;DHT22;38556;47.068;15.408;2023-06-26T09:37:31;27.10;79.20
1996;DHT22;38556;47.068;15.408;2023-06-26T09:39:59;27.20;80.60
1996;DHT22;38556;47.068;15.408;2023-06-26T09:42:26;27.30;80.60
1996;DHT22;38556;47.068;15.408;2023-06-26T09:44:55;27.40;78.60
1996;DHT22;38556;47.068;15.408;2023-06-26T09:47:24;27.00;73.70
1996;DHT22;38556;47.068;15.408;2023-06-26T09:49:51;27.20;74.40
1996;DHT22;38556;47.068;15.408;2023-06-26T09:52:21;27.10;75.30
1996;DHT22;38556;47.068;15.408;2023-06-26T09:54:48;27.30;74.50
1996;DHT22;38556;47.068;15.408;2023-06-26T09:57:17;27.30;72.50
1996;DHT22;38556;47.068;15.408;2023-06-26T09:59:45;27.30;72.20
1996;DHT22;38556;47.068;15.408;2023-06-26T10:02:14;27.40;72.30
1996;DHT22;38556;47.068;15.408;2023-06-26T10:04:41;27.40;71.60
1996;DHT22;38556;47.068;15.408;2023-06-26T10:07:11;27.50;70.40
1996;DHT22;38556;47.068;15.408;2023-06-26T10:09:41;27.50;71.40
1996;DHT22;38556;47.068;15.408;2023-06-26T10:12:13;27.60;71.20
1996;DHT22;38556;47.068;15.408;2023-06-26T10:14:43;27.50;68.70
1996;DHT22;38556;47.068;15.408;2023-06-26T10:17:16;27.40;69.50
1996;DHT22;38556;47.068;15.408;2023-06-26T10:19:45;27.40;70.40
1996;DHT22;38556;47.068;15.408;2023-06-26T10:22:15;27.50;69.60
1996;DHT22;38556;47.068;15.408;2023-06-26T10:24:44;27.60;69.00
1996;DHT22;38556;47.068;15.408;2023-06-26T10:27:16;27.50;70.20
1996;DHT22;38556;47.068;15.408;2023-06-26T10:29:44;27.50;76.40
1996;DHT22;38556;47.068;15.408;2023-06-26T10:32:15;27.60;78.90
1996;DHT22;38556;47.068;15.408;2023-06-26T10:34:44;27.50;80.80
1996;DHT22;38556;47.068;15.408;2023-06-26T10:37:12;27.40;81.50
1996;DHT22;38556;47.068;15.408;2023-06-26T10:39:46;27.30;82.40
1996;DHT22;38556;47.068;15.408;2023-06-26T10:42:16;27.40;81.70
1996;DHT22;38556;47.068;15.408;2023-06-26T10:44:45;27.40;82.00
1996;DHT22;38556;47.068;15.408;2023-06-26T10:47:30;27.30;81.40
1996;DHT22;38556;47.068;15.408;2023-06-26T10:50:16;27.20;82.60
1996;DHT22;38556;47.068;15.408;2023-06-26T10:52:45;27.10;81.40
1996;DHT22;38556;47.068;15.408;2023-06-26T10:55:13;27.10;82.20
1996;DHT22;38556;47.068;15.408;2023-06-26T10:57:46;27.30;83.30
1996;DHT22;38556;47.068;15.408;2023-06-26T11:00:15;27.40;83.00
1996;DHT22;38556;47.068;15.408;2023-06-26T11:02:51;27.50;82.80
1996;DHT22;38556;47.068;15.408;2023-06-26T11:05:26;27.40;83.10
1996;DHT22;38556;47.068;15.408;2023-06-26T11:08:03;27.20;81.70
1996;DHT22;38556;47.068;15.408;2023-06-26T11:10:50;27.30;83.00
1996;DHT22;38556;47.068;15.408;2023-06-26T11:13:18;27.50;81.90
1996;DHT22;38556;47.068;15.408;2023-06-26T11:15:46;27.50;82.90
1996;DHT22;38556;47.068;15.408;2023-06-26T11:18:15;27.50;82.90
1996;DHT22;38556;47.068;15.408;2023-06-26T11:20:42;27.30;80.40
1996;DHT22;38556;47.068;15.408;2023-06-26T11:23:10;27.40;80.90
1996;DHT22;38556;47.068;15.408;2023-06-26T11:25:38;27.60;81.20
1996;DHT22;38556;47.068;15.408;2023-06-26T11:28:09;27.70;81.50
1996;DHT22;38556;47.068;15.408;2023-06-26T11:30:36;27.90;83.10
1996;DHT22;38556;47.068;15.408;2023-06-26T11:33:06;27.90;80.90
1996;DHT22;38556;47.068;15.408;2023-06-26T11:35:35;27.90;80.40
1996;DHT22;38556;47.068;15.408;2023-06-26T11:38:03;27.90;79.50
1996;DHT22;38556;47.068;15.408;2023-06-26T11:40:32;29.80;83.10
1996;DHT22;38556;47.068;15.408;2023-06-26T11:43:01;28.20;80.10
1996;DHT22;38556;47.068;15.408;2023-06-26T11:45:29;28.10;80.00
1996;DHT22;38556;47.068;15.408;2023-06-26T11:47:57;28.20;79.20
1996;DHT22;38556;47.068;15.408;2023-06-26T11:50:25;28.10;80.00
1996;DHT22;38556;47.068;15.408;2023-06-26T11:52:59;28.20;81.80
1996;DHT22;38556;47.068;15.408;2023-06-26T11:55:39;28.20;80.70
1996;DHT22;38556;47.068;15.408;2023-06-26T11:58:06;28.10;78.90
1996;DHT22;38556;47.068;15.408;2023-06-26T12:00:34;28.10;79.50
1996;DHT22;38556;47.068;15.408;2023-06-26T12:03:01;28.30;79.30
1996;DHT22;38556;47.068;15.408;2023-06-26T12:05:29;28.10;81.00
1996;DHT22;38556;47.068;15.408;2023-06-26T12:07:58;28.20;80.70
1996;DHT22;38556;47.068;15.408;2023-06-26T12:10:27;28.30;80.80
1996;DHT22;38556;47.068;15.408;2023-06-26T12:12:54;28.20;81.70
1996;DHT22;38556;47.068;15.408;2023-06-26T12:15:24;28.20;81.80
1996;DHT22;38556;47.068;15.408;2023-06-26T12:17:52;28.20;80.40
1996;DHT22;38556;47.068;15.408;2023-06-26T12:20:21;28.40;79.60
1996;DHT22;38556;47.068;15.408;2023-06-26T12:22:49;28.40;80.00
1996;DHT22;38556;47.068;15.408;2023-06-26T12:25:23;28.50;78.60
1996;DHT22;38556;47.068;15.408;2023-06-26T12:27:50;28.70;80.20
1996;DHT22;38556;47.068;15.408;2023-06-26T12:30:18;28.90;81.30
1996;DHT22;38556;47.068;15.408;2023-06-26T12:32:45;29.10;79.90
1996;DHT22;38556;47.068;15.408;2023-06-26T12:35:13;29.30;78.70
1996;DHT22;38556;47.068;15.408;2023-06-26T12:37:42;29.40;76.10
1996;DHT22;38556;47.068;15.408;2023-06-26T12:40:17;29.50;79.10
1996;DHT22;38556;47.068;15.408;2023-06-26T12:42:46;29.50;77.60
1996;DHT22;38556;47.068;15.408;2023-06-26T12:45:14;29.50;78.20
1996;DHT22;38556;47.068;15.408;2023-06-26T12:47:42;29.60;75.60
1996;DHT22;38556;47.068;15.408;2023-06-26T12:50:11;29.30;74.90
1996;DHT22;38556;47.068;15.408;2023-06-26T12:52:38;29.50;75.60
1996;DHT22;38556;47.068;15.408;2023-06-26T12:55:07;29.50;74.80
1996;DHT22;38556;47.068;15.408;2023-06-26T12:57:34;29.60;74.90
1996;DHT22;38556;47.068;15.408;2023-06-26T13:00:04;29.80;77.80
1996;DHT22;38556;47.068;15.408;2023-06-26T13:02:36;29.80;75.00
1996;DHT22;38556;47.068;15.408;2023-06-26T13:05:03;29.80;73.10
1996;DHT22;38556;47.068;15.408;2023-06-26T13:07:31;29.80;73.50
1996;DHT22;38556;47.068;15.408;2023-06-26T13:09:58;29.90;73.10
1996;DHT22;38556;47.068;15.408;2023-06-26T13:12:25;29.70;73.10
1996;DHT22;38556;47.068;15.408;2023-06-26T13:14:52;29.90;73.90
1996;DHT22;38556;47.068;15.408;2023-06-26T13:17:21;30.10;75.00
1996;DHT22;38556;47.068;15.408;2023-06-26T13:19:48;30.10;74.50
1996;DHT22;38556;47.068;15.408;2023-06-26T13:22:16;30.30;76.10
1996;DHT22;38556;47.068;15.408;2023-06-26T13:24:43;30.10;74.00
1996;DHT22;38556;47.068;15.408;2023-06-26T13:27:11;30.30;73.30
1996;DHT22;38556;47.068;15.408;2023-06-26T13:29:38;30.40;72.80
1996;DHT22;38556;47.068;15.408;2023-06-26T13:32:06;30.50;71.20
1996;DHT22;38556;47.068;15.408;2023-06-26T13:34:34;30.60;72.00
1996;DHT22;38556;47.068;15.408;2023-06-26T13:37:02;30.80;71.50
1996;DHT22;38556;47.068;15.408;2023-06-26T13:39:29;31.00;71.50
1996;DHT22;38556;47.068;15.408;2023-06-26T13:41:57;31.10;71.40
1996;DHT22;38556;47.068;15.408;2023-06-26T13:44:24;31.00;71.30
1996;DHT22;38556;47.068;15.408;2023-06-26T13:46:51;31.00;71.30
1996;DHT22;38556;47.068;15.408;2023-06-26T13:49:19;31.10;72.70
1996;DHT22;38556;47.068;15.408;2023-06-26T13:51:48;31.10;72.70
1996;DHT22;38556;47.068;15.408;2023-06-26T13:54:15;31.10;72.60
1996;DHT22;38556;47.068;15.408;2023-06-26T13:56:44;31.40;70.20
1996;DHT22;38556;47.068;15.408;2023-06-26T13:59:11;31.40;71.10
1996;DHT22;38556;47.068;15.408;2023-06-26T14:01:39;31.10;72.40
1996;DHT22;38556;47.068;15.408;2023-06-26T14:04:08;31.40;72.60
1996;DHT22;38556;47.068;15.408;2023-06-26T14:06:36;31.40;69.30
1996;DHT22;38556;47.068;15.408;2023-06-26T14:09:04;31.60;70.40
1996;DHT22;38556;47.068;15.408;2023-06-26T14:11:33;31.50;70.70
1996;DHT22;38556;47.068;15.408;2023-06-26T14:14:00;31.80;71.50
1996;DHT22;38556;47.068;15.408;2023-06-26T14:16:27;32.20;70.70
1996;DHT22;38556;47.068;15.408;2023-06-26T14:18:54;32.20;71.40
1996;DHT22;38556;47.068;15.408;2023-06-26T14:21:22;32.30;69.40
1996;DHT22;38556;47.068;15.408;2023-06-26T14:23:49;32.40;69.90
1996;DHT22;38556;47.068;15.408;2023-06-26T14:26:18;32.60;68.80
1996;DHT22;38556;47.068;15.408;2023-06-26T14:28:45;32.70;69.60
1996;DHT22;38556;47.068;15.408;2023-06-26T14:31:12;32.80;69.30
1996;DHT22;38556;47.068;15.408;2023-06-26T14:33:40;33.00;70.60
1996;DHT22;38556;47.068;15.408;2023-06-26T14:36:07;32.60;67.70
1996;DHT22;38556;47.068;15.408;2023-06-26T14:38:34;32.70;69.00
1996;DHT22;38556;47.068;15.408;2023-06-26T14:41:01;32.60;69.70
1996;DHT22;38556;47.068;15.408;2023-06-26T14:43:30;32.70;68.40
1996;DHT22;38556;47.068;15.408;2023-06-26T14:45:57;32.70;67.70
1996;DHT22;38556;47.068;15.408;2023-06-26T14:48:25;32.60;67.20
1996;DHT22;38556;47.068;15.408;2023-06-26T14:50:52;32.70;69.10
1996;DHT22;38556;47.068;15.408;2023-06-26T14:53:20;32.80;67.50
1996;DHT22;38556;47.068;15.408;2023-06-26T14:55:47;32.90;68.50
1996;DHT22;38556;47.068;15.408;2023-06-26T14:58:14;33.10;67.70
1996;DHT22;38556;47.068;15.408;2023-06-26T15:00:43;33.30;67.90
1996;DHT22;38556;47.068;15.408;2023-06-26T15:03:11;33.40;67.20
1996;DHT22;38556;47.068;15.408;2023-06-26T15:05:38;33.50;66.70
1996;DHT22;38556;47.068;15.408;2023-06-26T15:08:05;33.50;66.20
1996;DHT22;38556;47.068;15.408;2023-06-26T15:10:33;33.80;67.30
1996;DHT22;38556;47.068;15.408;2023-06-26T15:13:00;33.80;65.90
1996;DHT22;38556;47.068;15.408;2023-06-26T15:15:27;33.90;66.90
1996;DHT22;38556;47.068;15.408;2023-06-26T15:17:56;33.90;64.60
1996;DHT22;38556;47.068;15.408;2023-06-26T15:20:23;33.90;65.80
1996;DHT22;38556;47.068;15.408;2023-06-26T15:22:50;33.70;65.40
1996;DHT22;38556;47.068;15.408;2023-06-26T15:25:17;33.50;65.90
1996;DHT22;38556;47.068;15.408;2023-06-26T15:27:45;33.60;67.70
1996;DHT22;38556;47.068;15.408;2023-06-26T15:30:12;33.80;67.70
1996;DHT22;38556;47.068;15.408;2023-06-26T15:32:40;33.80;67.90
1996;DHT22;38556;47.068;15.408;2023-06-26T15:35:09;33.60;67.10
1996;DHT22;38556;47.068;15.408;2023-06-26T15:37:36;33.60;67.00
1996;DHT22;38556;47.068;15.408;2023-06-26T15:40:05;33.70;67.60
1996;DHT22;38556;47.068;15.408;2023-06-26T15:42:33;33.70;68.20
1996;DHT22;38556;47.068;15.408;2023-06-26T15:45:00;33.70;66.50